createdAt,value
2018-02-10T00:01:13.986Z,38.25
2018-02-10T00:03:47.252Z,45.75
2018-02-10T00:06:17.967Z,38.25
2018-02-10T00:08:51.111Z,37.50
2018-02-10T00:11:22.663Z,39.75
2018-02-10T00:16:39.201Z,43.50
2018-02-10T00:19:17.233Z,43.00
2018-02-10T00:21:50.105Z,43.00
2018-02-10T00:24:22.837Z,45.25
2018-02-10T00:26:53.252Z,38.00
2018-02-10T00:29:25.536Z,44.75
2018-02-10T00:31:56.499Z,49.25
2018-02-10T00:34:27.978Z,35.50
2018-02-10T00:39:48.374Z,43.75
2018-02-10T00:44:56.543Z,36.75
2018-02-10T00:47:30.119Z,54.50
2018-02-10T00:58:27.310Z,44.75
2018-02-10T01:00:58.285Z,49.50
2018-02-10T01:03:32.142Z,45.75
2018-02-10T01:06:03.536Z,42.25
2018-02-10T01:14:30.511Z,51.75
2018-02-10T01:17:04.934Z,52.50
2018-02-10T01:26:34.152Z,44.75
2018-02-10T01:29:17.160Z,44.00
2018-02-10T01:31:54.609Z,50.50
2018-02-10T01:40:24.342Z,49.50
2018-02-10T01:53:15.260Z,41.50
2018-02-10T01:55:46.774Z,51.50
2018-02-10T01:58:17.712Z,47.75
2018-02-10T02:00:48.112Z,47.25
2018-02-10T02:03:20.190Z,47.00
2018-02-10T02:12:59.609Z,53.00
2018-02-10T02:15:32.024Z,44.25
2018-02-10T02:18:05.867Z,46.75
2018-02-10T02:20:42.486Z,42.75
2018-02-10T02:23:13.587Z,45.75
2018-02-10T02:28:31.960Z,45.75
2018-02-10T02:34:02.377Z,47.75
2018-02-10T02:36:33.973Z,56.50
2018-02-10T02:39:06.841Z,46.00
2018-02-10T02:41:37.651Z,45.00
2018-02-10T02:44:12.551Z,51.50
2018-02-10T02:46:50.078Z,50.00
2018-02-10T02:52:04.080Z,48.25
2018-02-10T02:54:35.914Z,50.00
2018-02-10T02:57:09.140Z,47.25
2018-02-10T02:59:40.125Z,42.00
2018-02-10T03:02:18.042Z,40.50
2018-02-10T03:07:30.567Z,50.00
2018-02-10T03:10:06.843Z,44.00
2018-02-10T03:12:39.335Z,50.50
2018-02-10T03:15:15.211Z,47.25
2018-02-10T03:17:46.525Z,48.00
2018-02-10T03:20:22.263Z,58.25
2018-02-10T03:22:58.837Z,54.00
2018-02-10T03:25:53.604Z,47.50
2018-02-10T03:28:29.679Z,50.00
2018-02-10T03:31:09.402Z,35.50
2018-02-10T03:36:34.857Z,52.25
2018-02-10T03:45:00.975Z,52.25
2018-02-10T03:47:33.635Z,43.25
2018-02-10T03:50:05.138Z,61.00
2018-02-10T03:52:38.892Z,54.25
2018-02-10T03:55:09.670Z,53.00
2018-02-10T03:57:42.661Z,55.00
2018-02-10T04:06:03.167Z,50.75
2018-02-10T04:08:42.308Z,49.00
2018-02-10T04:11:17.863Z,51.75
2018-02-10T04:18:11.259Z,53.00
2018-02-10T04:20:45.860Z,51.25
2018-02-10T04:23:17.878Z,35.00
2018-02-10T04:25:51.094Z,52.25
2018-02-10T04:28:26.052Z,59.50
2018-02-10T04:30:57.357Z,56.50
2018-02-10T04:36:50.107Z,56.00
2018-02-10T04:39:31.592Z,49.25
2018-02-10T04:42:03.514Z,41.75
2018-02-10T04:47:35.481Z,59.00
2018-02-10T04:50:12.521Z,47.00
2018-02-10T04:52:44.572Z,45.50
2018-02-10T04:55:15.741Z,50.50
2018-02-10T04:57:52.291Z,47.50
2018-02-10T05:00:43.339Z,46.00
2018-02-10T05:06:08.964Z,40.75
2018-02-10T05:08:40.204Z,59.50
2018-02-10T05:11:10.563Z,49.00
2018-02-10T05:13:45.780Z,54.25
2018-02-10T05:16:20.237Z,50.75
2018-02-10T05:18:53.981Z,59.50
2018-02-10T05:21:43.654Z,45.00
2018-02-10T05:29:53.920Z,51.75
2018-02-10T05:32:34.928Z,55.00
2018-02-10T05:41:49.980Z,50.00
2018-02-10T05:44:21.816Z,58.25
2018-02-10T05:46:55.805Z,50.50
2018-02-10T05:49:32.019Z,53.00
2018-02-10T05:52:08.337Z,42.50
2018-02-10T05:54:47.962Z,42.25
2018-02-10T05:57:27.210Z,54.00
2018-02-10T06:05:30.768Z,44.50
2018-02-10T06:08:07.712Z,43.75
2018-02-10T06:10:43.553Z,46.50
2018-02-10T06:13:22.568Z,52.25
2018-02-10T06:15:59.376Z,39.75
2018-02-10T06:18:31.711Z,43.75
2018-02-10T06:21:05.263Z,41.00
2018-02-10T06:23:42.157Z,37.75
2018-02-10T06:26:14.529Z,38.00
2018-02-10T06:43:07.662Z,44.50
2018-02-10T06:45:47.664Z,45.75
2018-02-10T06:51:11.602Z,39.75
2018-02-10T06:53:46.826Z,41.25
2018-02-10T06:56:24.375Z,42.00
2018-02-10T06:58:59.604Z,40.75
2018-02-10T07:01:33.994Z,43.50
2018-02-10T07:04:05.708Z,41.50
2018-02-10T07:06:43.684Z,32.75
2018-02-10T07:09:15.913Z,47.00
2018-02-10T07:11:47.926Z,42.00
2018-02-10T07:14:26.956Z,44.00
2018-02-10T07:23:03.222Z,50.50
2018-02-10T07:25:33.835Z,52.50
2018-02-10T07:28:09.412Z,46.75
2018-02-10T07:30:41.087Z,41.50
2018-02-10T07:33:21.564Z,50.50
2018-02-10T07:35:54.247Z,42.75
2018-02-10T07:38:28.753Z,43.50
2018-02-10T07:41:03.892Z,47.00
2018-02-10T07:43:38.239Z,47.75
2018-02-10T07:48:58.695Z,43.50
2018-02-10T07:54:07.701Z,51.00
2018-02-10T07:56:49.287Z,41.25
2018-02-10T07:59:21.571Z,48.50
2018-02-10T08:02:02.785Z,39.00
2018-02-10T08:10:29.757Z,41.50
2018-02-10T08:13:01.044Z,37.00
2018-02-10T08:15:32.163Z,48.75
2018-02-10T08:18:11.780Z,35.75
2018-02-10T08:20:45.624Z,42.25
2018-02-10T08:25:58.903Z,43.75
2018-02-10T08:28:32.400Z,54.00
2018-02-10T08:31:04.278Z,48.25
2018-02-10T08:33:43.270Z,43.00
2018-02-10T08:36:14.518Z,49.50
2018-02-10T08:38:44.987Z,41.50
2018-02-10T08:41:16.194Z,49.75
2018-02-10T08:43:54.269Z,47.25
2018-02-10T08:56:33.259Z,44.50
2018-02-10T08:59:12.176Z,41.75
2018-02-10T09:01:56.486Z,46.25
2018-02-10T09:04:28.934Z,38.00
2018-02-10T09:07:00.306Z,43.75
2018-02-10T09:09:43.960Z,40.75
2018-02-10T09:21:07.001Z,32.50
2018-02-10T09:23:38.531Z,44.25
2018-02-10T09:26:12.264Z,42.75
2018-02-10T09:35:09.131Z,47.75
2018-02-10T09:37:41.915Z,36.50
2018-02-10T09:40:17.870Z,43.00
2018-02-10T09:42:55.378Z,38.00
2018-02-10T09:45:29.269Z,39.75
2018-02-10T09:50:40.883Z,43.25
2018-02-10T09:53:12.190Z,53.75
2018-02-10T09:55:45.081Z,36.50
2018-02-10T09:58:24.792Z,37.50
2018-02-10T10:01:02.513Z,34.00
2018-02-10T10:10:57.598Z,33.50
2018-02-10T10:13:28.200Z,45.00
2018-02-10T10:16:09.456Z,34.75
2018-02-10T10:21:17.154Z,36.50
2018-02-10T10:23:49.490Z,44.25
2018-02-10T10:26:34.100Z,35.25
2018-02-10T10:29:07.616Z,36.50
2018-02-10T10:40:19.469Z,39.75
2018-02-10T10:43:05.830Z,35.50
2018-02-10T10:45:38.286Z,53.25
2018-02-10T10:48:13.898Z,35.00
2018-02-10T10:50:50.859Z,36.75
2018-02-10T10:53:30.232Z,34.25
2018-02-10T11:00:08.939Z,32.50
2018-02-10T11:02:40.253Z,38.00
2018-02-10T11:05:13.794Z,41.75
2018-02-10T11:07:48.982Z,34.75
2018-02-10T11:10:23.754Z,35.25
2018-02-10T11:12:55.249Z,35.75
2018-02-10T11:15:38.691Z,35.75
2018-02-10T11:18:22.173Z,43.25
2018-02-10T11:20:56.505Z,36.00
2018-02-10T11:23:31.633Z,32.25
2018-02-10T11:26:02.926Z,37.00
2018-02-10T11:28:33.295Z,37.75
2018-02-10T11:31:04.873Z,37.75
2018-02-10T11:33:35.344Z,29.25
2018-02-10T11:36:06.895Z,37.50
2018-02-10T11:38:37.865Z,32.75
2018-02-10T11:41:08.703Z,42.25
2018-02-10T11:43:46.294Z,45.75
2018-02-10T11:52:12.263Z,37.00
2018-02-10T12:06:04.354Z,35.00
2018-02-10T12:08:37.248Z,29.25
2018-02-10T12:11:08.109Z,38.75
2018-02-10T12:13:40.649Z,39.75
2018-02-10T12:16:12.174Z,34.50
2018-02-10T12:18:42.793Z,38.00
2018-02-10T12:21:13.295Z,38.25
2018-02-10T12:23:44.004Z,36.75
2018-02-10T12:26:14.942Z,36.25
2018-02-10T12:28:45.448Z,36.75
2018-02-10T12:31:23.513Z,34.75
2018-02-10T12:33:59.764Z,28.75
2018-02-10T12:36:30.422Z,37.50
2018-02-10T12:39:01.979Z,41.75
2018-02-10T12:41:32.883Z,40.25
2018-02-10T12:44:04.184Z,43.25
2018-02-10T12:46:34.700Z,39.75
2018-02-10T12:49:11.192Z,39.50
2018-02-10T12:51:42.294Z,41.75
2018-02-10T12:54:31.050Z,38.00
2018-02-10T12:57:04.414Z,41.25
2018-02-10T12:59:38.886Z,39.00
2018-02-10T13:04:47.555Z,29.50
2018-02-10T13:07:44.362Z,36.50
2018-02-10T13:10:17.809Z,34.50
2018-02-10T13:12:55.377Z,37.50
2018-02-10T13:15:26.585Z,42.50
2018-02-10T13:17:58.755Z,36.00
2018-02-10T13:20:36.566Z,48.50
2018-02-10T13:23:26.790Z,33.25
2018-02-10T13:26:02.591Z,36.00
2018-02-10T13:28:43.311Z,35.00
2018-02-10T13:31:30.179Z,31.00
2018-02-10T13:34:20.668Z,38.25
2018-02-10T13:36:53.996Z,40.50
2018-02-10T13:39:30.730Z,44.75
2018-02-10T13:42:05.630Z,41.00
2018-02-10T13:44:36.433Z,47.00
2018-02-10T13:47:15.607Z,54.75
2018-02-10T13:49:46.210Z,37.00
2018-02-10T13:52:20.209Z,51.25
2018-02-10T13:55:02.265Z,37.50
2018-02-10T13:57:33.175Z,47.00
2018-02-10T14:00:08.392Z,50.25
2018-02-10T14:02:39.654Z,42.25
2018-02-10T14:05:10.829Z,56.00
2018-02-10T14:07:50.667Z,43.50
2018-02-10T14:10:22.876Z,53.25
2018-02-10T14:15:25.547Z,41.75
2018-02-10T14:17:56.365Z,42.75
2018-02-10T14:20:28.410Z,35.25
2018-02-10T14:23:00.198Z,39.50
2018-02-10T14:25:31.260Z,41.25
2018-02-10T14:28:09.728Z,37.75
2018-02-10T14:30:42.343Z,44.50
2018-02-10T14:33:13.495Z,45.25
2018-02-10T14:35:45.255Z,34.50
2018-02-10T14:38:18.826Z,41.00
2018-02-10T14:40:51.720Z,48.75
2018-02-10T14:43:28.265Z,38.50
2018-02-10T14:46:14.266Z,45.50
2018-02-10T14:48:47.958Z,49.25
2018-02-10T14:51:19.191Z,44.50
2018-02-10T14:53:50.435Z,49.25
2018-02-10T14:56:21.747Z,51.75
2018-02-10T14:58:54.467Z,54.75
2018-02-10T15:04:04.654Z,50.50
2018-02-10T15:06:37.040Z,48.25
2018-02-10T15:09:08.399Z,58.25
2018-02-10T15:11:38.994Z,55.75
2018-02-10T15:14:10.654Z,44.50
2018-02-10T15:16:42.931Z,56.25
2018-02-10T15:19:13.859Z,49.00
2018-02-10T15:21:51.022Z,46.25
2018-02-10T15:24:23.692Z,56.25
2018-02-10T15:26:55.210Z,46.25
2018-02-10T15:29:25.911Z,42.75
2018-02-10T15:34:08.804Z,45.50
2018-02-10T15:36:40.074Z,48.00
2018-02-10T15:39:16.036Z,54.00
2018-02-10T15:41:47.562Z,53.00
2018-02-10T15:44:18.448Z,43.50
2018-02-10T15:46:50.378Z,42.25
2018-02-10T15:49:20.843Z,46.50
2018-02-10T15:52:03.093Z,38.75
2018-02-10T15:54:39.591Z,55.00
2018-02-10T15:57:10.488Z,47.00
2018-02-10T15:59:49.324Z,44.25
2018-02-10T16:05:02.918Z,47.50
2018-02-10T16:07:33.572Z,48.00
2018-02-10T16:10:05.146Z,44.00
2018-02-10T16:12:38.814Z,43.75
2018-02-10T16:15:13.585Z,44.00
2018-02-10T16:17:48.560Z,50.25
2018-02-10T16:20:20.551Z,42.50
2018-02-10T16:22:59.987Z,44.00
2018-02-10T16:25:36.246Z,41.75
2018-02-10T16:28:15.127Z,39.25
2018-02-10T16:30:50.957Z,39.25
2018-02-10T16:33:26.311Z,47.50
2018-02-10T16:36:10.157Z,37.25
2018-02-10T16:38:44.915Z,33.50
2018-02-10T16:41:19.293Z,51.50
2018-02-10T16:43:50.945Z,35.50
2018-02-10T16:46:52.418Z,37.75
2018-02-10T16:49:33.801Z,28.75
2018-02-10T16:52:17.727Z,34.25
2018-02-10T16:54:50.259Z,34.50
2018-02-10T16:57:21.955Z,28.25
2018-02-10T16:59:52.984Z,42.25
2018-02-10T17:02:26.988Z,63.00
2018-02-10T17:05:04.741Z,35.75
2018-02-10T17:07:36.911Z,28.75
2018-02-10T17:10:10.707Z,34.25
2018-02-10T17:12:42.729Z,29.50
2018-02-10T17:15:16.471Z,32.50
2018-02-10T17:17:47.198Z,32.00
2018-02-10T17:20:18.496Z,32.25
2018-02-10T17:22:49.563Z,31.00
2018-02-10T17:25:22.420Z,33.25
2018-02-10T17:30:33.646Z,28.50
2018-02-10T17:33:07.142Z,32.00
2018-02-10T17:35:39.813Z,30.00
2018-02-10T17:38:11.090Z,30.50
2018-02-10T17:40:44.358Z,30.00
2018-02-10T17:43:20.837Z,33.50
2018-02-10T17:45:52.054Z,30.00
2018-02-10T17:48:23.274Z,35.00
2018-02-10T17:50:55.149Z,38.00
2018-02-10T17:53:26.766Z,28.75
2018-02-10T17:55:57.338Z,34.75
2018-02-10T17:58:32.741Z,39.00
2018-02-10T18:01:04.532Z,31.50
2018-02-10T18:03:35.955Z,29.25
2018-02-10T18:06:07.660Z,34.50
2018-02-10T18:08:38.831Z,34.25
2018-02-10T18:11:10.775Z,31.00
2018-02-10T18:13:46.891Z,38.25
2018-02-10T18:16:19.069Z,31.50
2018-02-10T18:18:51.589Z,27.75
2018-02-10T18:21:24.922Z,30.25
2018-02-10T18:23:58.776Z,37.00
2018-02-10T18:26:30.060Z,36.75
2018-02-10T18:29:01.726Z,35.25
2018-02-10T18:31:34.359Z,32.50
2018-02-10T18:34:06.652Z,37.75
2018-02-10T18:36:38.362Z,36.50
2018-02-10T18:39:10.866Z,36.75
2018-02-10T18:41:42.344Z,39.00
2018-02-10T18:44:13.542Z,31.25
2018-02-10T18:46:46.109Z,35.75
2018-02-10T18:49:20.030Z,31.00
2018-02-10T18:51:52.052Z,28.00
2018-02-10T18:54:24.230Z,28.75
2018-02-10T18:56:54.922Z,37.25
2018-02-10T18:59:27.542Z,28.00
2018-02-10T19:02:00.154Z,27.75
2018-02-10T19:04:33.514Z,31.25
2018-02-10T19:07:05.992Z,32.50
2018-02-10T19:09:36.776Z,25.25
2018-02-10T19:12:07.734Z,26.50
2018-02-10T19:14:43.149Z,27.75
2018-02-10T19:17:15.554Z,26.75
2018-02-10T19:19:51.889Z,24.50
2018-02-10T19:22:22.664Z,20.75
2018-02-10T19:24:54.952Z,23.75
2018-02-10T19:27:27.887Z,25.75
2018-02-10T19:30:00.669Z,19.00
2018-02-10T19:32:39.510Z,18.75
2018-02-10T19:35:11.228Z,21.50
2018-02-10T19:37:45.734Z,26.00
2018-02-10T19:40:20.478Z,21.50
2018-02-10T19:42:55.367Z,23.25
2018-02-10T19:45:27.305Z,18.00
2018-02-10T19:47:58.377Z,23.75
2018-02-10T19:50:28.869Z,22.25
2018-02-10T19:53:00.655Z,21.25
2018-02-10T19:55:31.813Z,24.75
2018-02-10T19:58:04.684Z,22.75
2018-02-10T20:00:36.726Z,22.50
2018-02-10T20:03:11.713Z,24.00
2018-02-10T20:05:44.398Z,23.75
2018-02-10T20:08:17.608Z,24.75
2018-02-10T20:10:48.605Z,26.25
2018-02-10T20:13:19.433Z,21.75
2018-02-10T20:15:51.613Z,24.50
2018-02-10T20:18:22.263Z,21.75
2018-02-10T20:20:54.093Z,24.25
2018-02-10T20:23:25.538Z,23.25
2018-02-10T20:25:57.341Z,26.00
2018-02-10T20:28:28.269Z,26.00
2018-02-10T20:30:59.125Z,30.50
2018-02-10T20:33:29.897Z,21.50
2018-02-10T20:36:01.629Z,23.00
2018-02-10T20:38:32.352Z,21.25
2018-02-10T20:41:03.030Z,24.50
2018-02-10T20:43:34.457Z,23.50
2018-02-10T20:46:06.350Z,25.50
2018-02-10T20:48:38.425Z,26.75
2018-02-10T20:51:09.635Z,22.00
2018-02-10T20:53:41.633Z,21.25
2018-02-10T20:56:13.111Z,21.25
2018-02-10T20:58:44.203Z,19.00
2018-02-10T21:01:16.301Z,18.75
2018-02-10T21:03:48.013Z,16.25
2018-02-10T21:06:20.688Z,19.75
2018-02-10T21:08:52.579Z,27.75
2018-02-10T21:11:25.046Z,19.00
2018-02-10T21:13:56.263Z,19.25
2018-02-10T21:16:27.558Z,22.75
2018-02-10T21:18:58.471Z,20.25
2018-02-10T21:21:29.460Z,21.00
2018-02-10T21:24:01.673Z,16.25
2018-02-10T21:26:33.376Z,22.75
2018-02-10T21:29:05.227Z,15.75
2018-02-10T21:31:39.263Z,15.00
2018-02-10T21:34:10.323Z,20.25
2018-02-10T21:36:40.875Z,22.75
2018-02-10T21:39:12.485Z,17.00
2018-02-10T21:41:43.425Z,18.50
2018-02-10T21:44:15.336Z,20.25
2018-02-10T21:46:49.290Z,17.25
2018-02-10T21:49:21.370Z,21.50
2018-02-10T21:51:53.138Z,22.75
2018-02-10T21:54:24.549Z,19.00
2018-02-10T21:56:57.253Z,21.25
2018-02-10T21:59:28.998Z,15.25
2018-02-10T22:02:01.433Z,19.75
2018-02-10T22:04:34.241Z,17.25
2018-02-10T22:07:07.016Z,21.00
2018-02-10T22:09:38.438Z,17.75
2018-02-10T22:12:10.146Z,13.75
2018-02-10T22:14:41.321Z,15.75
2018-02-10T22:17:12.304Z,12.25
2018-02-10T22:19:45.249Z,17.75
2018-02-10T22:22:16.209Z,14.50
2018-02-10T22:24:47.177Z,10.50
2018-02-10T22:27:18.597Z,15.00
2018-02-10T22:29:50.453Z,13.00
2018-02-10T22:32:22.466Z,11.75
2018-02-10T22:34:53.531Z,14.00
2018-02-10T22:37:25.114Z,16.25
2018-02-10T22:39:56.646Z,11.75
2018-02-10T22:42:28.491Z,18.25
2018-02-10T22:44:59.818Z,15.75
2018-02-10T22:47:30.959Z,16.75
2018-02-10T22:50:01.400Z,17.00
2018-02-10T22:52:32.605Z,14.50
2018-02-10T22:55:05.303Z,13.75
2018-02-10T22:57:38.679Z,16.25
2018-02-10T23:00:14.236Z,13.75
2018-02-10T23:02:47.982Z,14.00
2018-02-10T23:05:21.414Z,17.00
2018-02-10T23:07:53.351Z,14.75
2018-02-10T23:10:24.452Z,12.25
2018-02-10T23:12:56.098Z,16.50
2018-02-10T23:15:28.047Z,11.00
2018-02-10T23:17:59.515Z,14.25
2018-02-10T23:20:30.462Z,18.75
2018-02-10T23:23:02.302Z,15.50
2018-02-10T23:25:38.197Z,16.50
2018-02-10T23:28:09.231Z,17.75
2018-02-10T23:30:41.557Z,15.00
2018-02-10T23:33:12.914Z,14.00
2018-02-10T23:35:43.826Z,15.00
2018-02-10T23:38:14.794Z,15.75
2018-02-10T23:40:45.659Z,14.00
2018-02-10T23:43:16.716Z,13.75
2018-02-10T23:45:47.612Z,12.00
2018-02-10T23:48:19.622Z,9.25
2018-02-10T23:50:50.828Z,10.00
2018-02-10T23:53:22.008Z,12.50
2018-02-10T23:55:52.612Z,13.00
2018-02-10T23:58:24.034Z,13.00
